FW6799 Weather Reports


Display with metric or nautical units.
time (UTC)temp
F
wind
direction
speed
MPH
gust
MPH
rain 1hr
in
rain 24hr
in
rain mn
in
humidity
%
barometer
mb
20221209230049 92 221 5.0 13.0 0.00 0.00 0.00 24 1010.3
20221209224603 91 220 5.0 11.0 0.00 0.00 0.00 26 1010.1
20221209223054 89 227 3.0 6.0 0.00 0.00 0.00 28 1009.9
20221209221550 87 221 3.0 8.0 0.00 0.00 0.00 29 1009.8
20221209220103 86 206 2.0 8.0 0.00 0.00 0.00 30 1009.5
20221209214541 83 227 2.0 4.0 0.00 0.00 0.00 33 1009.4
20221209213102 83 239 2.0 4.0 0.00 0.00 0.00 34 1009.1
20221209211549 82 262 2.0 4.0 0.00 0.00 0.00 35 1009.0
20221209210121 81 270 1.0 3.0 0.00 0.00 0.00 37 1008.7
20221209204601 81 270 1.0 3.0 0.00 0.00 0.00 38 1008.5
20221209203109 81 270 1.0 4.0 0.00 0.00 0.00 37 1008.3
20221209201552 83 254 2.0 4.0 0.00 0.00 0.00 35 1008.3
20221209200047 84 235 2.0 3.0 0.00 0.00 0.00 33 1008.1
20221209194611 84 210 1.0 3.0 0.00 0.00 0.00 33 1008.1
20221209193049 85 205 1.0 2.0 0.00 0.00 0.00 33 1008.0
20221209191552 86 202 1.0 2.0 0.00 0.00 0.00 32 1007.9
20221209190054 86 198 1.0 4.0 0.00 0.00 0.00 30 1007.8
20221209184554 87 316 1.0 2.0 0.00 0.00 0.00 29 1007.3
20221209183106 88 316 0.0 2.0 0.00 0.00 0.00 29 1007.3
20221209181550 87 316 0.0 2.0 0.00 0.00 0.00 30 1007.3
20221209180046 88 316 0.0 2.0 0.00 0.00 0.00 29 1007.4
20221209174600 88 316 1.0 2.0 0.00 0.00 0.00 29 1007.3
20221209173051 88 316 1.0 2.0 0.00 0.00 0.00 29 1007.4
20221209171557 87 0 0.0 2.0 0.00 0.00 0.00 30 1007.5
20221209170101 88 0 0.0 2.0 0.00 0.00 0.00 29 1007.5
20221209164604 89 316 0.0 3.0 0.00 0.00 0.00 28 1007.4
20221209163106 90 311 2.0 5.0 0.00 0.00 0.00 28 1007.4
20221209161610 90 316 2.0 5.0 0.00 0.00 0.00 27 1007.7
20221209160053 91 315 2.0 7.0 0.00 0.00 0.00 27 1007.9
20221209154554 91 335 3.0 6.0 0.00 0.00 0.00 27 1007.9
20221209153059 91 354 2.0 6.0 0.00 0.00 0.00 27 1007.9
20221209151605 91 340 2.0 6.0 0.00 0.00 0.00 27 1007.9
20221209150101 92 343 2.0 6.0 0.00 0.00 0.00 26 1008.1
20221209144602 93 328 3.0 6.0 0.00 0.00 0.00 25 1008.2
20221209143048 93 301 3.0 7.0 0.00 0.00 0.00 25 1008.2
20221209141556 94 304 3.0 9.0 0.00 0.00 0.00 24 1008.3
20221209140045 94 309 7.0 13.0 0.00 0.00 0.00 23 1008.2
20221209134555 92 323 4.0 9.0 0.00 0.00 0.00 25 1008.1
20221209133052 94 271 0.0 2.0 0.00 0.00 0.00 23 1007.7
20221209131557 94 0 0.0 1.0 0.00 0.00 0.00 23 1007.5
20221209130054 96 0 0.0 0.0 0.00 0.00 0.00 22 1007.4
20221209124556 96 0 0.0 0.0 0.00 0.00 0.00 21 1007.5
20221209123046 97 0 0.0 1.0 0.00 0.00 0.00 20 1007.4
20221209121545 97 271 0.0 3.0 0.00 0.00 0.00 21 1007.2
20221209120049 98 271 1.0 3.0 0.00 0.00 0.00 20 1007.0
20221209114557 99 271 0.0 2.0 0.00 0.00 0.00 19 1006.8
20221209113102 99 0 0.0 2.0 0.00 0.00 0.00 20 1006.7
20221209111551 99 271 0.0 2.0 0.00 0.00 0.00 22 1006.6
20221209110054 100 271 1.0 3.0 0.00 0.00 0.00 18 1006.5
20221209104555 101 271 1.0 3.0 0.00 0.00 0.00 17 1006.2
20221209103104 101 270 2.0 7.0 0.00 0.00 0.00 17 1006.2
20221209101552 103 279 5.0 9.0 0.00 0.00 0.00 16 1006.2
20221209100055 104 297 5.0 10.0 0.00 0.00 0.00 15 1006.1
20221209094552 106 284 8.0 14.0 0.00 0.00 0.00 14 1006.0
20221209093056 106 308 2.0 8.0 0.00 0.00 0.00 15 1005.8
20221209091543 107 284 5.0 10.0 0.00 0.00 0.00 14 1005.8
20221209090105 107 257 3.0 10.0 0.00 0.00 0.00 14 1005.7
20221209084558 107 310 5.0 15.0 0.00 0.00 0.00 14 1005.9
20221209083050 108 309 7.0 11.0 0.00 0.00 0.00 14 1005.8
20221209081555 108 246 2.0 10.0 0.00 0.00 0.00 14 1005.8
20221209080057 109 252 7.0 14.0 0.00 0.00 0.00 14 1005.8
20221209074548 107 172 4.0 10.0 0.00 0.00 0.00 14 1005.9
20221209073050 107 295 5.0 13.0 0.00 0.00 0.00 14 1006.1
20221209071549 108 298 7.0 14.0 0.00 0.00 0.00 14 1006.2
20221209070053 110 311 9.0 16.0 0.00 0.00 0.00 13 1006.3
20221209064548 109 18 7.0 15.0 0.00 0.00 0.00 13 1006.6
20221209063052 109 355 5.0 14.0 0.00 0.00 0.00 13 1006.8
20221209061546 108 349 6.0 14.0 0.00 0.00 0.00 14 1006.8
20221209060101 107 346 1.0 12.0 0.00 0.00 0.00 15 1006.9
20221209054551 108 271 10.0 18.0 0.00 0.00 0.00 14 1007.1
20221209053101 107 84 4.0 15.0 0.00 0.00 0.00 15 1007.1
20221209051552 107 354 5.0 13.0 0.00 0.00 0.00 16 1007.4
20221209050103 108 316 5.0 11.0 0.00 0.00 0.00 15 1007.5
20221209044547 107 354 5.0 13.0 0.00 0.00 0.00 15 1007.7
20221209043047 106 231 5.0 13.0 0.00 0.00 0.00 16 1008.0
20221209041559 105 226 5.0 11.0 0.00 0.00 0.00 16 1008.2
20221209040048 105 246 4.0 9.0 0.00 0.00 0.00 16 1008.3
20221209034606 104 351 3.0 16.0 0.00 0.00 0.00 16 1008.7
20221209033051 107 257 8.0 14.0 0.00 0.00 0.00 15 1008.9
20221209031553 104 94 2.0 7.0 0.00 0.00 0.00 16 1009.0
20221209030049 103 278 2.0 14.0 0.00 0.00 0.00 16 1009.3
20221209024555 104 300 6.0 11.0 0.00 0.00 0.00 16 1009.2
20221209023057 103 95 6.0 12.0 0.00 0.00 0.00 15 1009.2
20221209021547 103 163 3.0 9.0 0.00 0.00 0.00 15 1009.3
20221209020054 102 180 4.0 11.0 0.00 0.00 0.00 16 1009.6
20221209014549 102 185 6.0 12.0 0.00 0.00 0.00 16 1009.7
20221209013052 101 160 5.0 11.0 0.00 0.00 0.00 16 1009.7
20221209011548 101 155 6.0 13.0 0.00 0.00 0.00 17 1009.9
20221209010047 100 180 5.0 13.0 0.00 0.00 0.00 17 1009.8
20221209004557 99 165 6.0 12.0 0.00 0.00 0.00 17 1009.6
20221209003047 98 142 7.0 13.0 0.00 0.00 0.00 18 1009.7
20221209001551 97 191 6.0 11.0 0.00 0.00 0.00 19 1009.6
20221209000053 96 180 7.0 11.0 0.00 0.00 0.00 19 1009.4
20221208234550 95 121 7.0 15.0 0.00 0.00 0.00 21 1009.5
20221208233055 94 189 5.0 12.0 0.00 0.00 0.00 21 1009.3
20221208231616 93 189 4.0 8.0 0.00 0.00 0.00 22 1009.2